This is the latest recevied weather packets stored in our database for station/object OH2CHY-10. If no packets are shown the sender has not sent any weather packets the latest 10 day(s).
| Time | Temp. | Humidity | Pressure | Rain* | Wind** | Luminosity | Snow |
|---|---|---|---|---|---|---|---|
| 1777992265 | 16.11° C | 27% | 1005 hPa | - | - | - | - |
| 1777991365 | 15.56° C | 28% | 1004.9 hPa | - | - | - | - |
| 1777990465 | 15.56° C | 28% | 1005 hPa | - | - | - | - |
| 1777989564 | 17.22° C | 27% | 1004.8 hPa | - | - | - | - |
| 1777988664 | 16.67° C | 29% | 1004.9 hPa | - | - | - | - |
| 1777987764 | 16.67° C | 29% | 1004.9 hPa | - | - | - | - |
| 1777986864 | 15° C | 30% | 1004.8 hPa | - | - | - | - |
| 1777985964 | 15.56° C | 30% | 1004.8 hPa | - | - | - | - |
| 1777985064 | 15° C | 31% | 1004.6 hPa | - | - | - | - |
| 1777984164 | 16.11° C | 32% | 1004.6 hPa | - | - | - | - |
| 1777983264 | 17.22° C | 29% | 1004.5 hPa | - | - | - | - |
| 1777982364 | 16.11° C | 34% | 1004.4 hPa | - | - | - | - |
| 1777981464 | 17.78° C | 32% | 1004.1 hPa | - | - | - | - |
| 1777980564 | 14.44° C | 34% | 1003.8 hPa | - | - | - | - |
| 1777979664 | 15° C | 34% | 1003.8 hPa | - | - | - | - |
| 1777978764 | 16.11° C | 32% | 1003.5 hPa | - | - | - | - |
| 1777977863 | 15° C | 38% | 1003.4 hPa | - | - | - | - |
| 1777976963 | 16.11° C | 33% | 1003.2 hPa | - | - | - | - |
| 1777976063 | 16.11° C | 35% | 1002.8 hPa | - | - | - | - |
| 1777975163 | 16.67° C | 35% | 1002.6 hPa | - | - | - | - |
| 1777974263 | 16.67° C | 35% | 1002.4 hPa | - | - | - | - |
| 1777973363 | 16.11° C | 40% | 1002.3 hPa | - | - | - | - |
| 1777972463 | 15° C | 43% | 1002.1 hPa | - | - | - | - |
| 1777971563 | 14.44° C | 43% | 1001.8 hPa | - | - | - | - |
| 1777970663 | 16.11° C | 41% | 1001.3 hPa | - | - | - | - |
* Rain since midnight (hover to see other rain measurements)
** Current wind speed in m/s (hover to see current wind gust speed)